Deer Lodge, MT

8:49 PM MDT on August 04, 2015 (GMT -0600)
Circle H Growers, LLC | | Change Station
CLOSE
Current Station
Personal Weather Station
Location: Deer Lodge, MT
Elevation: 4527 ft
Nearby Weather Stations

Elev 4527 ft 46.40 °N, 112.74 °W | Updated 13 seconds ago

Mostly Cloudy
Mostly Cloudy
69.0 °F
Feels Like 69.0 °F
N
5.0
Wind Variable Wind from SE
Gusts 23.0 mph

Today
High -- | Low -- °F
--% Chance of Precip.
Yesterday
High -- | Low -- °F
Precip. -- in
6:15 AM 8:57 PM
Waning Gibbous, 72% visible
Pressure 30.06 in
Visibility 10.0 miles
Clouds Few 8000 ft
Scattered Clouds 9000 ft
Scattered Clouds 11000 ft
Dew Point 46 °F
Humidity 44%
Rainfall 0.05 in
Snow Depth Not available.
UV 0.0 out of 12
Pollen 5.10 out of 12
Air Quality Not available.
Flu Activity Not available.
SPECI KBTM 050202Z AUTO 02011KT 10SM FEW080 SCT090 SCT110 20/09 A3006 RMK AO2 LTG DSNT NE AND E AND SW T02000094

More Conditions Fewer Conditions

Pressure 30.06 in
Visibility 10.0 miles
Clouds Few 8000 ft
Scattered Clouds 9000 ft
Scattered Clouds 11000 ft
Dew Point 46 °F
Humidity 44%
Rainfall 0.05 in
Snow Depth Not available.
UV 0.0 out of 12
Pollen 5.10 out of 12
Air Quality Not available.
Flu Activity Not available.
SPECI KBTM 050202Z AUTO 02011KT 10SM FEW080 SCT090 SCT110 20/09 A3006 RMK AO2 LTG DSNT NE AND E AND SW T02000094

More Conditions Fewer Conditions

10-Day Weather Forecast

×

Almanac

Astronomy

Aug. 04, 2015 Rise Set
Actual Time
Civil Twilight
Nautical Twilight
Astronomical Twilight
Moon
Length of Visible Light
Length of Day
Tomorrow will be .
, % of the Moon is Illuminated

Today's Extremes

State Highs State Lows

Community

WunderPhotos

Upload Photos

1,844,089 photos uploaded!

WunderBlogs® & News

Nearby

Air Quality

  Air Quality AQ Index Pollutant
Not available.

Snow Depth

Station Depth Elevation

Earthquake Activity

City Distance Mag. Time & Date
Minimum magnitude displayed is 2.5.

Coastal Water Temperatures

Place Temperature

Stations

Nearby Weather Stations

Station Location Temp. Windchill Dew Point Humidity Wind Precip. Elev Updated Type